Huvudsida
METAR-TAF:

METAR-TAF

Flygplatser :

Al-Hasa, Saudiarabien

latitud: 25-18N, longitud: 049-29E, höjd: 179 m

Aktuellt väderrapport

Denna rapport gjordes för 1 timme och 40 minuter sedan, klockan 06:00 UTC
Vind 3 kt från syd
Temperatur 19°C
Fuktighet 49%
Tryck 1020 hPa
Sikt 10 km eller mer
Inga moln under 1 500 m eller inga cumulonimbus

METAR: OEAH 220600Z 18003KT CAVOK 19/08 Q1020 NOSIG

Tid: 10:40 (07:40 UTC)

Väderprognos

Denna rapport gjordes för 8 timmar och 40 minuter sedan, klockan 23:00 UTC
Prognos gäller från 22 kl. 00 UTC till 23 kl. 06 UTC
Vind 3 kt varierande vindriktning
Sikt 10 km eller mer
Inga moln under 1 500 m eller inga cumulonimbus
Blir
från 22 kl. 06 UTC till 22 kl. 08 UTC
Vind 14 kt från ost/nordost
Sikt: 6000 m

TAF: OEAH 212300Z 2200/2306 VRB03KT CAVOK BECMG 2206/2208 06014KT 6000 NSC

Aktuella väderrapporter och prognoser från 4000 flygplatser (METAR- och TAF-rapporter).

De tillgängliga stationerna syns som gula och röda prickar på kartan.

För musen över prickarna för att se namnen på stationerna.

Klicka sedan för att få väderrapporter och prognoser.

För att ändra kartan: Klicka på de gröna knapparna med ett svart kors på för att zooma in; den gröna knappen med ett streck på för att zooma ut; eller på de gröna pilarna för angränsande kartor.


METAR-TAF: